Main page
METAR-TAF:

METAR-TAF

Airports :

Győr-Pér International Airport

Győr, Hungary

latitude: 47-37-28N, longitude: 017-48-49E, elevation: 129 m

Current weather observation

The report was made 34 minutes ago, at 12:45 UTC
Wind 18 kt from the Northwest, varying between West and North
Temperature 10°C
Humidity 40%
Pressure 1022 hPa
Visibility 10 km or more
no clouds below 1500 m and no cumulonimbus

METAR: LHPR 261245Z 32018KT 280V350 CAVOK 10/M03 Q1022

Time: 14:19 (13:19 UTC)

Forecast

The report was made 2 hours and 4 minutes ago, at 11:15 UTC
Forecast valid from 26 at 12 UTC to 26 at 21 UTC
Wind 16 kt from the North/Northwest with gusts up to 26 kt
Visibility 10 km or more
no clouds below 1500 m and no cumulonimbus
Temporary
from 26 at 15 UTC to 26 at 21 UTC
Wind 8 kt from the Northwest
Temporary
from 26 at 18 UTC to 26 at 21 UTC
Broken clouds at a height of 4000 ft

TAF: LHPR 261115Z 2612/2621 33016G26KT CAVOK TEMPO 2615/2621 32008KT TEMPO 2618/2621 BKN040

Weather observations and forecasts of more than 4000 airports (METAR and TAF reports).

The available stations are represented by yellow and red dots on the map.

Hover mouse over dot to see the name of the station.

Then click to see weather observations and forecasts.

To change the map : click on the green buttons with a black cross to zoom in, on the green button with a dash to zoom out, or on the green arrows for adjacent maps.


METAR-TAF: